createdAt,value
2023-05-07T00:00:20.332Z,90.47
2023-05-07T00:02:47.709Z,91.31
2023-05-07T00:05:15.958Z,92.99
2023-05-07T00:07:42.867Z,92.48
2023-05-07T00:10:11.438Z,91.50
2023-05-07T00:12:38.324Z,90.49
2023-05-07T00:15:05.554Z,89.45
2023-05-07T00:17:32.433Z,87.71
2023-05-07T00:19:59.135Z,86.36
2023-05-07T00:22:26.101Z,85.93
2023-05-07T00:24:52.791Z,87.93
2023-05-07T00:27:19.516Z,88.29
2023-05-07T00:29:46.145Z,89.63
2023-05-07T00:32:12.882Z,88.12
2023-05-07T00:34:40.740Z,87.48
2023-05-07T00:37:08.603Z,87.54
2023-05-07T00:39:35.619Z,87.89
2023-05-07T00:44:41.729Z,85.97
2023-05-07T00:47:08.811Z,86.12
2023-05-07T00:49:53.632Z,87.64
2023-05-07T00:52:22.905Z,87.07
2023-05-07T00:54:49.672Z,87.97
2023-05-07T00:57:16.911Z,87.70
2023-05-07T00:59:43.687Z,87.76
2023-05-07T01:02:10.302Z,87.39
2023-05-07T01:04:37.896Z,87.49
2023-05-07T01:07:06.612Z,88.39
2023-05-07T01:09:33.346Z,88.42
2023-05-07T01:12:00.580Z,89.24
2023-05-07T01:14:27.412Z,87.93
2023-05-07T01:16:54.713Z,88.33
2023-05-07T01:19:21.596Z,88.74
2023-05-07T01:21:49.929Z,88.44
2023-05-07T01:24:17.032Z,89.09
2023-05-07T01:26:45.791Z,90.06
2023-05-07T01:29:12.648Z,92.63
2023-05-07T01:31:41.885Z,91.05
2023-05-07T01:34:10.877Z,90.93
2023-05-07T01:36:39.856Z,90.66
2023-05-07T01:39:07.524Z,91.30
2023-05-07T01:41:34.341Z,90.29
2023-05-07T01:44:02.539Z,91.52
2023-05-07T01:46:30.028Z,93.28
2023-05-07T01:48:56.921Z,91.73
2023-05-07T01:51:23.981Z,90.61
2023-05-07T01:53:51.998Z,91.86
2023-05-07T01:56:19.712Z,91.68
2023-05-07T01:58:49.762Z,91.65
2023-05-07T02:01:16.437Z,92.27
2023-05-07T02:03:43.304Z,91.47
2023-05-07T02:06:10.127Z,91.34
2023-05-07T02:08:37.007Z,91.64
2023-05-07T02:11:03.857Z,90.59
2023-05-07T02:13:32.832Z,88.94
2023-05-07T02:15:59.535Z,87.91
2023-05-07T02:18:26.308Z,87.96
2023-05-07T02:20:52.988Z,87.37
2023-05-07T02:25:57.358Z,87.63
2023-05-07T02:28:24.031Z,88.07
2023-05-07T02:30:50.680Z,89.14
2023-05-07T02:35:54.677Z,89.57
2023-05-07T02:38:21.332Z,90.22
2023-05-07T02:40:48.095Z,90.60
2023-05-07T02:43:14.965Z,90.48
2023-05-07T02:45:41.731Z,89.62
2023-05-07T02:48:08.432Z,91.26
2023-05-07T02:50:35.130Z,91.25
2023-05-07T02:53:01.789Z,91.33
2023-05-07T02:55:28.445Z,92.72
2023-05-07T02:57:55.077Z,92.51
2023-05-07T03:00:22.110Z,93.54
2023-05-07T03:02:48.848Z,94.29
2023-05-07T03:05:15.597Z,94.31
2023-05-07T03:07:46.383Z,95.49
2023-05-07T03:10:13.245Z,96.91
2023-05-07T03:12:40.630Z,98.03
2023-05-07T03:15:07.909Z,97.11
2023-05-07T03:17:34.565Z,95.94
2023-05-07T03:20:01.244Z,95.11
2023-05-07T03:22:27.955Z,92.68
2023-05-07T03:24:54.694Z,91.12
2023-05-07T03:27:21.284Z,90.42
2023-05-07T03:29:47.967Z,91.82
2023-05-07T03:32:14.619Z,91.68
2023-05-07T03:34:41.522Z,92.02
2023-05-07T03:37:08.227Z,92.12
2023-05-07T03:39:34.864Z,93.19
2023-05-07T03:42:02.250Z,94.11
2023-05-07T03:44:28.972Z,94.52
2023-05-07T03:46:56.551Z,93.13
2023-05-07T03:49:23.244Z,93.90
2023-05-07T03:51:49.906Z,94.11
2023-05-07T03:54:16.598Z,94.33
2023-05-07T03:56:43.303Z,94.41
2023-05-07T03:59:09.896Z,93.89
2023-05-07T04:01:37.000Z,94.69
2023-05-07T04:04:04.501Z,93.93
2023-05-07T04:06:32.225Z,95.54
2023-05-07T04:08:59.046Z,95.74
2023-05-07T04:11:26.123Z,95.84
2023-05-07T04:13:52.778Z,94.26
2023-05-07T04:16:19.560Z,92.41
2023-05-07T04:18:46.451Z,92.14
2023-05-07T04:21:17.428Z,92.75
2023-05-07T04:23:44.351Z,92.87
2023-05-07T04:26:11.358Z,94.11
2023-05-07T04:28:38.018Z,93.10
2023-05-07T04:31:04.937Z,94.26
2023-05-07T04:33:31.679Z,93.69
2023-05-07T04:35:58.701Z,94.82
2023-05-07T04:38:25.367Z,94.20
2023-05-07T04:40:52.556Z,93.49
2023-05-07T04:45:53.501Z,92.81
2023-05-07T04:48:21.633Z,92.34
2023-05-07T04:50:49.402Z,91.67
2023-05-07T04:53:16.200Z,91.35
2023-05-07T04:55:42.960Z,92.21
2023-05-07T04:58:10.303Z,91.49
2023-05-07T05:00:36.901Z,92.58
2023-05-07T05:03:03.724Z,91.87
2023-05-07T05:05:30.376Z,91.66
2023-05-07T05:07:57.027Z,93.83
2023-05-07T05:10:24.807Z,92.91
2023-05-07T05:12:51.650Z,91.66
2023-05-07T05:15:18.473Z,89.88
2023-05-07T05:17:45.681Z,90.19
2023-05-07T05:20:13.084Z,89.99
2023-05-07T05:22:40.255Z,90.54
2023-05-07T05:25:07.137Z,90.77
2023-05-07T05:27:33.790Z,89.77
2023-05-07T05:32:34.656Z,91.53
2023-05-07T05:35:01.634Z,92.24
2023-05-07T05:37:28.440Z,91.65
2023-05-07T05:42:33.379Z,89.79
2023-05-07T05:44:59.979Z,88.85
2023-05-07T05:47:26.722Z,87.07
2023-05-07T05:49:53.337Z,85.46
2023-05-07T05:52:20.043Z,84.76
2023-05-07T05:54:46.732Z,83.32
2023-05-07T05:57:13.429Z,81.73
2023-05-07T05:59:40.126Z,80.20
2023-05-07T06:02:07.836Z,80.16
2023-05-07T06:04:34.554Z,79.80
2023-05-07T06:07:01.253Z,78.08
2023-05-07T06:09:27.872Z,77.42
2023-05-07T06:11:54.570Z,77.74
2023-05-07T06:16:59.796Z,78.40
2023-05-07T06:19:27.874Z,78.62
2023-05-07T06:21:54.791Z,80.51
2023-05-07T06:24:21.413Z,80.70
2023-05-07T06:26:48.066Z,78.47
2023-05-07T06:29:14.991Z,76.40
2023-05-07T06:31:41.980Z,75.44
2023-05-07T06:34:09.052Z,77.07
2023-05-07T06:36:36.240Z,76.64
2023-05-07T06:39:03.173Z,75.77
2023-05-07T06:41:29.790Z,75.63
2023-05-07T06:43:56.424Z,74.71
2023-05-07T06:46:23.151Z,73.77
2023-05-07T06:48:49.841Z,74.07
2023-05-07T06:51:16.488Z,73.89
2023-05-07T06:53:43.119Z,74.31
2023-05-07T06:56:09.796Z,71.93
2023-05-07T06:58:36.491Z,72.35
2023-05-07T07:01:03.191Z,70.79
2023-05-07T07:03:29.959Z,70.62
2023-05-07T07:05:56.601Z,69.42
2023-05-07T07:08:23.849Z,69.39
2023-05-07T07:10:50.629Z,68.39
2023-05-07T07:13:17.341Z,67.26
2023-05-07T07:15:44.819Z,66.66
2023-05-07T07:18:11.997Z,66.87
2023-05-07T07:20:38.708Z,63.88
2023-05-07T07:23:05.484Z,63.17
2023-05-07T07:25:32.286Z,61.89
2023-05-07T07:27:58.978Z,60.68
2023-05-07T07:30:27.333Z,60.59
2023-05-07T07:32:54.758Z,60.91
2023-05-07T07:35:21.500Z,58.96
2023-05-07T07:37:51.045Z,58.36
2023-05-07T07:40:17.839Z,58.14
2023-05-07T07:45:16.302Z,59.01
2023-05-07T07:47:43.295Z,58.13
2023-05-07T07:50:10.732Z,57.16
2023-05-07T07:52:37.646Z,57.51
2023-05-07T07:55:05.764Z,56.40
2023-05-07T07:57:32.400Z,56.91
2023-05-07T07:59:59.038Z,57.26
2023-05-07T08:02:26.524Z,57.58
2023-05-07T08:04:53.197Z,57.64
2023-05-07T08:07:21.835Z,59.12
2023-05-07T08:09:50.853Z,57.56
2023-05-07T08:12:17.537Z,58.27
2023-05-07T08:14:44.302Z,57.13
2023-05-07T08:17:11.612Z,57.35
2023-05-07T08:19:38.390Z,57.10
2023-05-07T08:22:06.821Z,57.25
2023-05-07T08:24:33.567Z,56.82
2023-05-07T08:27:00.220Z,56.75
2023-05-07T08:29:27.015Z,56.94
2023-05-07T08:31:53.758Z,56.42
2023-05-07T08:36:58.657Z,55.26
2023-05-07T08:39:25.312Z,55.84
2023-05-07T08:41:57.544Z,54.88
2023-05-07T08:44:28.541Z,55.24
2023-05-07T08:46:57.888Z,56.34
2023-05-07T08:49:24.617Z,57.07
2023-05-07T08:51:51.460Z,55.07
2023-05-07T08:54:19.061Z,55.51
2023-05-07T08:56:45.782Z,55.55
2023-05-07T08:59:12.450Z,54.48
2023-05-07T09:01:39.975Z,54.31
2023-05-07T09:04:08.119Z,53.87
2023-05-07T09:06:35.899Z,52.97
2023-05-07T09:09:06.516Z,52.57
2023-05-07T09:11:33.321Z,52.76
2023-05-07T09:14:02.612Z,51.49
2023-05-07T09:16:31.523Z,49.03
2023-05-07T09:19:00.390Z,49.59
2023-05-07T09:21:27.283Z,48.95
2023-05-07T09:23:55.814Z,49.06
2023-05-07T09:26:23.656Z,48.60
2023-05-07T09:28:50.418Z,50.58
2023-05-07T09:31:19.423Z,49.12
2023-05-07T09:33:47.765Z,47.03
2023-05-07T09:36:15.213Z,48.28
2023-05-07T09:38:42.841Z,47.01
2023-05-07T09:41:14.003Z,46.89
2023-05-07T09:43:42.043Z,46.13
2023-05-07T09:46:16.538Z,47.01
2023-05-07T09:48:45.072Z,46.85
2023-05-07T09:51:26.986Z,45.46
2023-05-07T09:56:26.734Z,46.00
2023-05-07T09:58:56.269Z,46.21
2023-05-07T10:01:23.746Z,46.09
2023-05-07T10:03:51.687Z,47.04
2023-05-07T10:06:18.581Z,47.62
2023-05-07T10:08:45.789Z,46.21
2023-05-07T10:11:12.995Z,45.87
2023-05-07T10:13:39.650Z,44.99
2023-05-07T10:16:06.616Z,45.36
2023-05-07T10:18:34.305Z,43.83
2023-05-07T10:21:09.569Z,43.10
2023-05-07T10:23:36.912Z,44.83
2023-05-07T10:26:07.226Z,45.56
2023-05-07T10:28:38.500Z,44.86
2023-05-07T10:31:31.551Z,45.00
2023-05-07T10:33:59.825Z,44.83
2023-05-07T10:36:27.553Z,43.61
2023-05-07T10:38:54.534Z,43.91
2023-05-07T10:41:22.388Z,43.73
2023-05-07T10:43:49.119Z,43.39
2023-05-07T10:46:18.866Z,43.30
2023-05-07T10:49:07.497Z,42.94
2023-05-07T10:51:34.805Z,43.44
2023-05-07T10:54:13.692Z,42.79
2023-05-07T10:56:44.215Z,41.75
2023-05-07T10:59:24.768Z,41.78
2023-05-07T11:01:54.486Z,42.26
2023-05-07T11:04:27.487Z,43.62
2023-05-07T11:07:09.717Z,44.61
2023-05-07T11:09:54.867Z,42.27
2023-05-07T11:12:39.937Z,42.47
2023-05-07T11:15:17.168Z,42.52
2023-05-07T11:17:57.844Z,44.05
2023-05-07T11:20:56.329Z,42.98
2023-05-07T11:23:34.893Z,41.98
2023-05-07T11:26:01.820Z,42.72
2023-05-07T11:28:32.513Z,43.69
2023-05-07T11:30:59.325Z,43.03
2023-05-07T11:33:29.134Z,43.23
2023-05-07T11:35:56.587Z,43.92
2023-05-07T11:38:23.439Z,44.88
2023-05-07T11:41:01.856Z,44.42
2023-05-07T11:43:28.819Z,45.16
2023-05-07T11:45:55.587Z,43.76
2023-05-07T11:48:23.604Z,42.98
2023-05-07T11:50:59.487Z,45.25
2023-05-07T11:53:28.097Z,43.31
2023-05-07T11:55:56.837Z,42.86
2023-05-07T11:58:25.038Z,44.47
2023-05-07T12:00:53.003Z,43.42
2023-05-07T12:03:20.157Z,43.73
2023-05-07T12:05:47.915Z,44.98
2023-05-07T12:08:17.914Z,43.27
2023-05-07T12:10:45.920Z,45.03
2023-05-07T12:13:17.209Z,44.63
2023-05-07T12:15:44.611Z,46.07
2023-05-07T12:18:14.490Z,46.83
2023-05-07T12:23:13.893Z,47.27
2023-05-07T12:25:43.252Z,46.84
2023-05-07T12:28:14.384Z,48.09
2023-05-07T12:30:41.947Z,47.52
2023-05-07T12:33:08.855Z,47.49
2023-05-07T12:35:40.827Z,47.19
2023-05-07T12:38:15.224Z,48.16
2023-05-07T12:40:54.893Z,47.65
2023-05-07T12:43:25.259Z,49.85
2023-05-07T12:45:54.397Z,48.51
2023-05-07T12:48:22.309Z,48.46
2023-05-07T12:50:52.758Z,53.00
2023-05-07T12:53:22.738Z,53.37
2023-05-07T12:55:51.537Z,51.33
2023-05-07T12:58:20.770Z,51.38
2023-05-07T13:00:50.134Z,50.35
2023-05-07T13:03:25.410Z,49.59
2023-05-07T13:05:52.846Z,50.45
2023-05-07T13:08:31.141Z,52.68
2023-05-07T13:10:59.730Z,53.95
2023-05-07T13:13:26.559Z,55.52
2023-05-07T13:15:53.337Z,56.62
2023-05-07T13:18:20.178Z,61.33
2023-05-07T13:20:46.978Z,62.09
2023-05-07T13:23:13.750Z,62.09
2023-05-07T13:25:40.484Z,64.51
2023-05-07T13:28:11.318Z,65.90
2023-05-07T13:30:38.460Z,68.43
2023-05-07T13:33:05.254Z,71.35
2023-05-07T13:35:32.010Z,74.96
2023-05-07T13:40:32.531Z,69.37
2023-05-07T13:43:01.037Z,72.65
2023-05-07T13:47:59.576Z,79.06
2023-05-07T13:50:28.128Z,77.12
2023-05-07T13:52:54.892Z,82.75
2023-05-07T13:55:24.155Z,85.23
2023-05-07T13:57:58.145Z,91.88
2023-05-07T14:00:26.134Z,90.28
2023-05-07T14:02:53.302Z,92.23
2023-05-07T14:05:20.595Z,93.63
2023-05-07T14:07:48.236Z,89.88
2023-05-07T14:10:15.432Z,88.89
2023-05-07T14:12:42.485Z,82.47
2023-05-07T14:15:09.448Z,79.88
2023-05-07T14:17:36.339Z,83.08
2023-05-07T14:20:03.137Z,86.37
2023-05-07T14:22:29.794Z,88.97
2023-05-07T14:25:06.402Z,88.36
2023-05-07T14:27:33.992Z,91.85
2023-05-07T14:30:00.807Z,92.58
2023-05-07T14:32:27.455Z,92.08
2023-05-07T14:34:54.154Z,100.00
2023-05-07T14:37:21.199Z,100.00
2023-05-07T14:39:50.763Z,100.00
2023-05-07T14:42:18.013Z,100.00
2023-05-07T14:44:46.671Z,100.00
2023-05-07T14:47:14.482Z,100.00
2023-05-07T14:49:42.142Z,98.57
2023-05-07T14:52:11.321Z,100.00
2023-05-07T14:54:39.288Z,100.00
2023-05-07T14:57:08.049Z,100.00
2023-05-07T14:59:34.873Z,100.00
2023-05-07T15:02:03.809Z,100.00
2023-05-07T15:04:32.405Z,100.00
2023-05-07T15:06:59.053Z,100.00
2023-05-07T15:09:25.786Z,100.00
2023-05-07T15:11:52.588Z,100.00
2023-05-07T15:14:19.472Z,100.00
2023-05-07T15:16:46.884Z,100.00
2023-05-07T15:19:16.018Z,100.00
2023-05-07T15:21:42.780Z,100.00
2023-05-07T15:24:10.205Z,100.00
2023-05-07T15:26:37.290Z,100.00
2023-05-07T15:29:09.263Z,100.00
2023-05-07T15:31:35.954Z,100.00
2023-05-07T15:34:02.772Z,100.00
2023-05-07T15:36:29.588Z,100.00
2023-05-07T15:38:56.276Z,100.00
2023-05-07T15:41:22.967Z,100.00
2023-05-07T15:43:53.106Z,100.00
2023-05-07T15:46:25.637Z,100.00
2023-05-07T15:48:53.739Z,100.00
2023-05-07T15:51:21.331Z,100.00
2023-05-07T15:53:48.477Z,100.00
2023-05-07T15:56:15.423Z,100.00
2023-05-07T15:58:42.128Z,100.00
2023-05-07T16:01:08.878Z,100.00
2023-05-07T16:03:35.817Z,100.00
2023-05-07T16:08:34.509Z,100.00
2023-05-07T16:11:01.317Z,100.00
2023-05-07T16:13:28.017Z,100.00
2023-05-07T16:18:29.849Z,100.00
2023-05-07T16:20:56.618Z,100.00
2023-05-07T16:23:23.274Z,100.00
2023-05-07T16:25:50.201Z,100.00
2023-05-07T16:28:17.117Z,100.00
2023-05-07T16:30:44.353Z,100.00
2023-05-07T16:33:11.156Z,100.00
2023-05-07T16:35:37.856Z,100.00
2023-05-07T16:38:10.178Z,100.00
2023-05-07T16:40:40.240Z,100.00
2023-05-07T16:43:06.986Z,100.00
2023-05-07T16:45:34.009Z,100.00
2023-05-07T16:48:00.726Z,100.00
2023-05-07T16:50:27.550Z,100.00
2023-05-07T16:52:54.205Z,100.00
2023-05-07T16:57:58.320Z,97.25
2023-05-07T17:00:27.837Z,100.00
2023-05-07T17:02:58.707Z,97.08
2023-05-07T17:05:25.431Z,95.51
2023-05-07T17:07:52.417Z,95.68
2023-05-07T17:10:20.555Z,97.65
2023-05-07T17:12:47.167Z,97.27
2023-05-07T17:15:14.191Z,98.54
2023-05-07T17:17:42.127Z,100.00
2023-05-07T17:20:09.439Z,100.00
2023-05-07T17:22:36.306Z,100.00
2023-05-07T17:25:04.486Z,100.00
2023-05-07T17:27:31.903Z,100.00
2023-05-07T17:29:58.529Z,100.00
2023-05-07T17:32:25.709Z,100.00
2023-05-07T17:34:52.570Z,100.00
2023-05-07T17:37:19.459Z,100.00
2023-05-07T17:39:46.522Z,100.00
2023-05-07T17:42:13.124Z,100.00
2023-05-07T17:44:40.133Z,100.00
2023-05-07T17:47:07.614Z,100.00
2023-05-07T17:49:34.355Z,100.00
2023-05-07T17:52:01.046Z,100.00
2023-05-07T17:54:28.187Z,100.00
2023-05-07T17:56:54.882Z,100.00
2023-05-07T17:59:21.912Z,100.00
2023-05-07T18:01:48.648Z,100.00
2023-05-07T18:04:15.531Z,100.00
2023-05-07T18:06:42.503Z,100.00
2023-05-07T18:09:09.382Z,100.00
2023-05-07T18:11:37.474Z,100.00
2023-05-07T18:14:04.213Z,100.00
2023-05-07T18:16:31.079Z,100.00
2023-05-07T18:18:57.787Z,100.00
2023-05-07T18:21:24.452Z,100.00
2023-05-07T18:23:51.679Z,100.00
2023-05-07T18:26:18.357Z,100.00
2023-05-07T18:28:46.252Z,100.00
2023-05-07T18:31:13.031Z,100.00
2023-05-07T18:33:39.730Z,100.00
2023-05-07T18:36:06.921Z,100.00
2023-05-07T18:38:34.262Z,100.00
2023-05-07T18:41:05.452Z,100.00
2023-05-07T18:43:34.014Z,100.00
2023-05-07T18:48:32.536Z,100.00
2023-05-07T18:50:59.236Z,100.00
2023-05-07T18:53:25.875Z,100.00
2023-05-07T18:55:53.116Z,100.00
2023-05-07T18:58:20.370Z,100.00
2023-05-07T19:00:48.138Z,100.00
2023-05-07T19:05:47.306Z,100.00
2023-05-07T19:08:14.087Z,100.00
2023-05-07T19:10:40.715Z,100.00
2023-05-07T19:13:07.462Z,100.00
2023-05-07T19:15:34.435Z,100.00
2023-05-07T19:18:01.576Z,100.00
2023-05-07T19:20:29.509Z,100.00
2023-05-07T19:25:33.370Z,100.00
2023-05-07T19:27:59.962Z,100.00
2023-05-07T19:30:26.780Z,100.00
2023-05-07T19:32:53.458Z,100.00
2023-05-07T19:35:20.185Z,100.00
2023-05-07T19:37:46.878Z,100.00
2023-05-07T19:40:14.849Z,100.00
2023-05-07T19:42:41.768Z,100.00
2023-05-07T19:45:08.871Z,100.00
2023-05-07T19:47:35.588Z,100.00
2023-05-07T19:50:02.231Z,100.00
2023-05-07T19:52:28.939Z,100.00
2023-05-07T19:54:56.150Z,100.00
2023-05-07T19:57:22.882Z,100.00
2023-05-07T19:59:49.555Z,100.00
2023-05-07T20:02:16.647Z,100.00
2023-05-07T20:04:43.347Z,100.00
2023-05-07T20:09:48.376Z,100.00
2023-05-07T20:12:15.242Z,100.00
2023-05-07T20:14:41.898Z,100.00
2023-05-07T20:17:08.561Z,100.00
2023-05-07T20:19:35.257Z,100.00
2023-05-07T20:22:01.887Z,100.00
2023-05-07T20:24:28.520Z,100.00
2023-05-07T20:26:55.150Z,100.00
2023-05-07T20:29:23.254Z,100.00
2023-05-07T20:31:49.923Z,100.00
2023-05-07T20:34:16.690Z,100.00
2023-05-07T20:36:43.329Z,100.00
2023-05-07T20:39:13.361Z,100.00
2023-05-07T20:41:39.971Z,100.00
2023-05-07T20:44:06.865Z,100.00
2023-05-07T20:46:34.553Z,100.00
2023-05-07T20:49:01.201Z,100.00
2023-05-07T20:51:27.890Z,100.00
2023-05-07T20:53:54.510Z,100.00
2023-05-07T20:56:22.407Z,100.00
2023-05-07T20:58:49.254Z,100.00
2023-05-07T21:01:16.113Z,100.00
2023-05-07T21:03:42.794Z,100.00
2023-05-07T21:06:09.421Z,100.00
2023-05-07T21:08:36.036Z,100.00
2023-05-07T21:11:02.888Z,100.00
2023-05-07T21:13:29.634Z,100.00
2023-05-07T21:15:56.348Z,100.00
2023-05-07T21:18:23.655Z,100.00
2023-05-07T21:20:50.276Z,100.00
2023-05-07T21:23:16.917Z,100.00
2023-05-07T21:25:47.384Z,100.00
2023-05-07T21:28:14.418Z,100.00
2023-05-07T21:30:41.185Z,100.00
2023-05-07T21:33:08.799Z,100.00
2023-05-07T21:38:09.071Z,100.00
2023-05-07T21:40:35.798Z,100.00
2023-05-07T21:43:02.432Z,100.00
2023-05-07T21:45:29.157Z,100.00
2023-05-07T21:47:56.339Z,100.00
2023-05-07T21:50:23.369Z,100.00
2023-05-07T21:52:50.058Z,100.00
2023-05-07T21:55:19.911Z,100.00
2023-05-07T21:58:01.454Z,100.00
2023-05-07T22:00:32.186Z,100.00
2023-05-07T22:02:59.169Z,100.00
2023-05-07T22:05:25.876Z,100.00
2023-05-07T22:07:52.487Z,100.00
2023-05-07T22:10:23.089Z,100.00
2023-05-07T22:12:50.164Z,100.00
2023-05-07T22:15:16.979Z,100.00
2023-05-07T22:17:43.714Z,100.00
2023-05-07T22:20:11.160Z,100.00
2023-05-07T22:22:53.411Z,100.00
2023-05-07T22:25:21.409Z,100.00
2023-05-07T22:27:48.504Z,100.00
2023-05-07T22:30:15.234Z,100.00
2023-05-07T22:32:42.867Z,100.00
2023-05-07T22:35:10.246Z,100.00
2023-05-07T22:37:37.072Z,100.00
2023-05-07T22:40:04.527Z,100.00
2023-05-07T22:42:31.245Z,100.00
2023-05-07T22:44:58.108Z,100.00
2023-05-07T22:47:25.122Z,100.00
2023-05-07T22:49:51.777Z,100.00
2023-05-07T22:52:18.470Z,100.00
2023-05-07T22:54:45.135Z,100.00
2023-05-07T22:57:11.786Z,100.00
2023-05-07T22:59:38.533Z,100.00
2023-05-07T23:02:05.441Z,100.00
2023-05-07T23:04:32.199Z,100.00
2023-05-07T23:06:58.896Z,100.00
2023-05-07T23:09:25.821Z,100.00
2023-05-07T23:11:52.446Z,100.00
2023-05-07T23:14:19.132Z,100.00
2023-05-07T23:16:45.903Z,100.00
2023-05-07T23:19:13.125Z,100.00
2023-05-07T23:21:39.767Z,100.00
2023-05-07T23:24:06.811Z,100.00
2023-05-07T23:42:52.256Z,100.00
2023-05-07T23:45:25.028Z,100.00
2023-05-07T23:47:57.836Z,100.00
2023-05-07T23:53:02.604Z,100.00
2023-05-07T23:55:29.218Z,100.00
2023-05-07T23:57:55.923Z,100.00
